createdAt,value
2023-01-22T00:13:39.982Z,-0.06
2023-01-22T00:28:46.500Z,-0.13
2023-01-22T00:43:53.058Z,-0.06
2023-01-22T00:58:58.789Z,-0.13
2023-01-22T01:14:04.758Z,-0.13
2023-01-22T01:29:11.951Z,-0.25
2023-01-22T01:44:19.175Z,-0.19
2023-01-22T01:59:25.234Z,-0.19
2023-01-22T02:14:34.334Z,-0.25
2023-01-22T02:29:40.110Z,-0.19
2023-01-22T02:44:45.973Z,-0.13
2023-01-22T02:59:52.040Z,-0.19
2023-01-22T03:15:15.058Z,-0.13
2023-01-22T03:30:21.039Z,-0.25
2023-01-22T03:45:26.634Z,-0.13
2023-01-22T04:00:32.947Z,-0.19
2023-01-22T04:15:39.212Z,-0.19
2023-01-22T04:30:46.275Z,-0.06
2023-01-22T04:45:53.549Z,-0.19
2023-01-22T05:00:59.884Z,-0.13
2023-01-22T05:16:05.900Z,-0.13
2023-01-22T05:31:12.295Z,-0.06
2023-01-22T05:46:18.127Z,-0.06
2023-01-22T06:01:23.823Z,-0.06
2023-01-22T06:16:29.441Z,-0.06
2023-01-22T06:31:35.094Z,-0.06
2023-01-22T06:46:40.720Z,0.06
2023-01-22T07:01:46.391Z,0.00
2023-01-22T07:16:52.040Z,0.06
2023-01-22T07:31:57.725Z,0.13
2023-01-22T07:47:03.437Z,0.19
2023-01-22T08:02:13.017Z,0.19
2023-01-22T08:17:18.699Z,0.19
2023-01-22T08:32:24.511Z,0.31
2023-01-22T08:47:30.521Z,0.31
2023-01-22T09:02:36.227Z,0.38
2023-01-22T09:17:42.761Z,0.38
2023-01-22T09:32:48.720Z,0.44
2023-01-22T09:47:58.923Z,0.63
2023-01-22T10:03:08.375Z,0.56
2023-01-22T10:18:25.822Z,0.69
2023-01-22T10:33:31.374Z,0.69
2023-01-22T10:48:37.050Z,0.75
2023-01-22T11:03:42.555Z,1.00
2023-01-22T11:18:55.766Z,1.44
2023-01-22T11:34:50.163Z,1.38
2023-01-22T11:50:08.244Z,1.63
2023-01-22T12:05:23.489Z,1.81
2023-01-22T12:20:44.284Z,1.56
2023-01-22T12:35:51.637Z,1.94
2023-01-22T12:50:58.763Z,2.00
2023-01-22T13:06:05.971Z,1.81
2023-01-22T13:21:13.608Z,1.81
2023-01-22T13:36:19.415Z,1.63
2023-01-22T13:51:25.301Z,1.63
2023-01-22T14:06:31.486Z,1.69
2023-01-22T14:21:37.660Z,1.69
2023-01-22T14:36:45.186Z,1.56
2023-01-22T14:51:51.121Z,1.56
2023-01-22T15:06:56.894Z,1.38
2023-01-22T15:22:03.988Z,1.31
2023-01-22T15:37:09.568Z,1.31
2023-01-22T15:52:15.134Z,1.31
2023-01-22T16:07:20.900Z,1.06
2023-01-22T16:22:27.857Z,1.25
2023-01-22T16:37:33.968Z,1.25
2023-01-22T16:52:41.152Z,1.25
2023-01-22T17:07:46.949Z,1.31
2023-01-22T17:22:54.072Z,1.19
2023-01-22T17:37:59.627Z,1.19
2023-01-22T17:53:05.561Z,1.19
2023-01-22T18:08:11.676Z,1.13
2023-01-22T18:23:18.031Z,1.19
2023-01-22T18:38:26.445Z,1.13
2023-01-22T18:53:32.884Z,1.19
2023-01-22T19:08:39.705Z,1.19
2023-01-22T19:23:48.485Z,1.13
2023-01-22T19:38:54.401Z,1.13
2023-01-22T19:54:02.000Z,1.13
2023-01-22T20:09:07.981Z,1.13
2023-01-22T20:24:14.247Z,1.13
2023-01-22T20:39:20.968Z,1.06
2023-01-22T20:54:28.232Z,1.19
2023-01-22T21:09:35.182Z,1.13
2023-01-22T21:24:41.008Z,1.13
2023-01-22T21:39:46.504Z,1.13
2023-01-22T21:54:52.281Z,1.00
2023-01-22T22:09:58.224Z,1.19
2023-01-22T22:25:03.915Z,1.13
2023-01-22T22:40:12.466Z,1.19
2023-01-22T22:55:18.240Z,1.13
2023-01-22T23:10:32.996Z,1.13
2023-01-22T23:25:38.603Z,1.13
2023-01-22T23:40:44.516Z,1.25
2023-01-22T23:55:50.900Z,1.13
